Time;durP1;ratioP1;P1;durP2;ratioP2;P2;SDS_P1;SDS_P2;PMS_P1;PMS_P2;Temp;Humidity;BMP_temperature;BMP_pressure;BME280_temperature;BME280_humidity;BME280_pressure;Samples;Min_cycle;Max_cycle;Signal;HPM_P1;HPM_P2
2022/10/15 00:01:22;;;;;;;0.80;0.80;;;;;;;13.30;100.00;100677.34;5090932;28;20202;-73
2022/10/15 00:03:49;;;;;;;0.80;0.80;;;;;;;13.15;100.00;100666.72;5091316;28;20230;-73
2022/10/15 00:06:20;;;;;;;0.80;0.80;;;;;;;13.40;100.00;100674.00;5091302;28;20198;-73
2022/10/15 00:08:48;;;;;;;0.70;0.70;;;;;;;13.17;100.00;100675.41;5091152;28;20194;-74
2022/10/15 00:11:17;;;;;;;0.60;0.60;;;;;;;13.08;100.00;100636.22;5091587;28;20598;-73
2022/10/15 00:13:44;;;;;;;0.70;0.70;;;;;;;13.10;100.00;100651.88;5091577;28;20647;-73
2022/10/15 00:16:14;;;;;;;0.60;0.60;;;;;;;13.34;100.00;100668.69;5091225;28;20209;-73
2022/10/15 00:18:42;;;;;;;0.77;0.77;;;;;;;13.23;100.00;100665.09;5090938;28;20232;-73
2022/10/15 00:21:11;;;;;;;0.70;0.70;;;;;;;13.23;100.00;100670.31;5090984;28;20206;-73
2022/10/15 00:23:40;;;;;;;1.75;1.27;;;;;;;13.20;100.00;100665.03;5091158;28;20229;-73
2022/10/15 00:26:08;;;;;;;0.90;0.90;;;;;;;13.06;100.00;100663.06;5090945;28;20202;-73
2022/10/15 00:28:35;;;;;;;0.80;0.80;;;;;;;13.10;100.00;100657.94;5090858;28;20726;-73
2022/10/15 00:31:05;;;;;;;0.70;0.70;;;;;;;13.16;100.00;100662.38;5090657;28;20216;-73
2022/10/15 00:33:32;;;;;;;0.80;0.80;;;;;;;12.92;100.00;100657.66;5090893;28;20201;-73
2022/10/15 00:36:05;;;;;;;1.00;1.00;;;;;;;13.01;100.00;100638.69;5090653;28;20209;-73
2022/10/15 00:38:31;;;;;;;0.75;0.75;;;;;;;12.96;100.00;100656.84;5090830;28;20205;-73
2022/10/15 00:41:00;;;;;;;0.80;0.80;;;;;;;13.03;100.00;100653.47;5090695;28;20205;-73
2022/10/15 00:43:42;;;;;;;0.70;0.70;;;;;;;13.06;100.00;100645.72;5090634;28;20226;-73
2022/10/15 00:46:17;;;;;;;0.60;0.60;;;;;;;13.05;100.00;100649.19;5090545;28;20197;-73
2022/10/15 00:48:46;;;;;;;0.70;0.70;;;;;;;12.99;100.00;100653.41;5090855;28;20198;-73
2022/10/15 00:51:13;;;;;;;0.80;0.80;;;;;;;12.98;100.00;100649.97;5072047;28;20290;-73
2022/10/15 00:53:40;;;;;;;0.70;0.70;;;;;;;12.88;100.00;100615.09;5090690;28;20210;-73
2022/10/15 00:56:09;;;;;;;0.80;0.80;;;;;;;12.97;100.00;100631.69;5090395;28;20201;-73
2022/10/15 00:58:36;;;;;;;0.70;0.70;;;;;;;13.03;100.00;100650.00;5071658;28;20210;-73
2022/10/15 01:01:03;;;;;;;0.80;0.80;;;;;;;12.92;100.00;100642.03;5090526;28;20280;-73
2022/10/15 01:03:30;;;;;;;0.70;0.70;;;;;;;12.94;100.00;100645.56;5090612;28;20237;-73
2022/10/15 01:05:57;;;;;;;0.80;0.80;;;;;;;12.89;100.00;100648.09;5090395;28;20203;-73
2022/10/15 01:08:24;;;;;;;0.70;0.70;;;;;;;12.92;100.00;100645.53;5090478;28;20198;-73
2022/10/15 01:11:02;;;;;;;0.70;0.70;;;;;;;12.87;100.00;100630.69;5090533;28;20205;-73
2022/10/15 01:13:37;;;;;;;0.70;0.70;;;;;;;12.93;100.00;100623.84;5093058;28;20212;-73
2022/10/15 01:16:12;;;;;;;0.80;0.80;;;;;;;13.03;100.00;100639.59;5058842;28;20198;-73
2022/10/15 01:18:43;;;;;;;0.70;0.70;;;;;;;12.68;100.00;100600.06;5094252;28;20233;-73
2022/10/15 01:21:16;;;;;;;0.80;0.80;;;;;;;12.97;100.00;100634.31;5094249;28;20197;-73
2022/10/15 01:24:32;;;;;;;0.70;0.70;;;;;;;12.66;100.00;100602.66;5058581;28;20222;-73
2022/10/15 01:27:24;;;;;;;0.70;0.70;;;;;;;13.03;100.00;100653.47;5012258;28;20203;-74
2022/10/15 01:30:21;;;;;;;0.63;0.63;;;;;;;12.95;100.00;100655.09;5011887;28;20201;-73
2022/10/15 01:33:10;;;;;;;0.70;0.70;;;;;;;12.76;100.00;100645.28;5012016;28;20200;-73
2022/10/15 01:35:48;;;;;;;0.70;0.70;;;;;;;12.60;100.00;100630.28;5011876;28;20616;-73
2022/10/15 01:38:25;;;;;;;0.80;0.80;;;;;;;12.61;100.00;100637.22;5011746;28;20673;-73
2022/10/15 01:40:57;;;;;;;0.70;0.70;;;;;;;12.44;100.00;100626.56;5011959;28;20197;-74
2022/10/15 01:43:30;;;;;;;0.68;0.68;;;;;;;11.18;100.00;100398.38;5011155;28;20228;-73
2022/10/15 01:46:03;;;;;;;0.60;0.60;;;;;;;12.57;100.00;100653.63;5011751;28;20216;-73
2022/10/15 01:48:32;;;;;;;0.70;0.70;;;;;;;12.36;100.00;100643.75;5011472;28;20216;-73
2022/10/15 01:51:02;;;;;;;0.70;0.70;;;;;;;12.21;100.00;100613.19;5011737;28;20201;-73
2022/10/15 01:53:33;;;;;;;0.70;0.70;;;;;;;12.02;100.00;100595.50;5011650;28;20591;-73
2022/10/15 01:56:06;;;;;;;0.75;0.75;;;;;;;12.23;100.00;100642.69;5011437;28;20613;-73
2022/10/15 01:58:34;;;;;;;1.00;1.00;;;;;;;11.44;100.00;100536.44;5011448;28;20205;-72
2022/10/15 02:01:02;;;;;;;0.70;0.70;;;;;;;12.10;100.00;100632.91;5011466;28;20201;-72
2022/10/15 02:03:29;;;;;;;0.80;0.80;;;;;;;12.07;100.00;100640.66;5075596;28;20205;-73
2022/10/15 02:06:02;;;;;;;3.40;1.85;;;;;;;12.16;100.00;100640.84;5094114;28;20199;-73
2022/10/15 02:08:40;;;;;;;0.70;0.70;;;;;;;12.23;100.00;100645.28;5093647;28;20614;-73
2022/10/15 02:11:10;;;;;;;0.95;0.95;;;;;;;12.17;100.00;100646.88;5093431;28;20677;-73
2022/10/15 02:13:46;;;;;;;0.70;0.70;;;;;;;12.06;100.00;100643.22;5057741;28;20202;-74
2022/10/15 02:16:23;;;;;;;0.70;0.70;;;;;;;12.11;100.00;100652.00;5093203;28;20642;-73
2022/10/15 02:18:57;;;;;;;0.70;0.70;;;;;;;12.03;100.00;100648.38;5093266;28;20233;-73
2022/10/15 02:21:29;;;;;;;0.70;0.70;;;;;;;12.14;100.00;100641.63;5093506;28;20198;-73
2022/10/15 02:24:06;;;;;;;0.70;0.70;;;;;;;12.04;100.00;100648.41;5092836;28;20263;-73
2022/10/15 02:26:34;;;;;;;0.70;0.70;;;;;;;11.91;100.00;100651.66;5093309;28;20255;-73
2022/10/15 02:29:05;;;;;;;0.70;0.70;;;;;;;11.69;100.00;100662.44;5093306;28;20301;-73
2022/10/15 02:31:35;;;;;;;0.70;0.70;;;;;;;11.70;100.00;100648.59;5093280;28;20289;-73
2022/10/15 02:34:06;;;;;;;0.70;0.70;;;;;;;11.39;100.00;100627.22;5092987;28;20446;-73
2022/10/15 02:36:33;;;;;;;0.80;0.80;;;;;;;11.45;100.00;100658.47;5092980;28;20194;-73
2022/10/15 02:39:03;;;;;;;0.80;0.80;;;;;;;11.57;100.00;100657.84;5093045;28;20201;-73
2022/10/15 02:41:30;;;;;;;0.90;0.90;;;;;;;11.50;100.00;100661.19;5092970;28;20720;-73
2022/10/15 02:43:57;;;;;;;0.80;0.80;;;;;;;11.39;100.00;100666.16;5057061;28;20668;-73
2022/10/15 02:46:24;;;;;;;1.50;1.40;;;;;;;11.27;100.00;100655.50;5057265;28;20187;-73
2022/10/15 02:48:52;;;;;;;0.70;0.70;;;;;;;11.65;100.00;100673.59;5092674;28;20190;-73
2022/10/15 02:51:19;;;;;;;0.70;0.70;;;;;;;11.51;100.00;100672.44;5093093;28;20198;-73
2022/10/15 02:53:45;;;;;;;0.90;0.90;;;;;;;11.58;100.00;100664.81;5092841;28;20191;-73
2022/10/15 02:56:12;;;;;;;0.70;0.70;;;;;;;11.34;100.00;100634.00;5092645;28;20198;-73
2022/10/15 02:58:39;;;;;;;0.70;0.70;;;;;;;11.41;100.00;100672.22;5092749;28;20198;-73
2022/10/15 03:01:06;;;;;;;0.90;0.90;;;;;;;11.46;100.00;100669.75;5092643;28;20729;-73
2022/10/15 03:03:33;;;;;;;0.83;0.83;;;;;;;11.06;100.00;100604.88;5092579;28;20205;-74
2022/10/15 03:06:01;;;;;;;0.80;0.80;;;;;;;11.58;100.00;100663.94;5092736;28;20202;-74
2022/10/15 03:08:28;;;;;;;0.90;0.90;;;;;;;11.50;100.00;100665.50;5092544;28;20704;-74
2022/10/15 03:10:55;;;;;;;1.05;1.05;;;;;;;11.45;100.00;100671.47;5092503;28;20201;-74
2022/10/15 03:13:22;;;;;;;0.73;0.73;;;;;;;11.47;100.00;100671.50;5092383;28;20255;-74
2022/10/15 03:15:48;;;;;;;0.90;0.90;;;;;;;11.33;100.00;100667.75;5092391;28;20207;-74
2022/10/15 03:18:15;;;;;;;0.60;0.60;;;;;;;11.34;100.00;100675.53;5092240;28;20232;-74
2022/10/15 03:20:42;;;;;;;0.70;0.70;;;;;;;11.28;100.00;100669.34;5092115;28;20551;-75
2022/10/15 03:23:10;;;;;;;0.70;0.70;;;;;;;11.51;100.00;100667.25;5092435;28;20601;-74
2022/10/15 03:25:37;;;;;;;0.90;0.90;;;;;;;11.30;100.00;100658.19;5092131;28;20236;-75
2022/10/15 03:28:04;;;;;;;0.80;0.80;;;;;;;11.19;100.00;100679.56;5092069;28;20198;-75
2022/10/15 03:30:31;;;;;;;0.50;0.50;;;;;;;11.09;100.00;100675.88;5092110;28;20209;-74
2022/10/15 03:32:57;;;;;;;0.70;0.70;;;;;;;11.10;100.00;100682.81;5092171;28;20649;-74
2022/10/15 03:35:24;;;;;;;0.77;0.77;;;;;;;11.10;100.00;100662.03;5091232;28;20568;-74
2022/10/15 03:37:51;;;;;;;1.13;1.13;;;;;;;11.29;100.00;100682.38;5091779;28;20197;-74
2022/10/15 03:40:19;;;;;;;0.70;0.70;;;;;;;11.43;100.00;100678.34;5091998;28;20206;-74
2022/10/15 03:42:50;;;;;;;0.70;0.70;;;;;;;11.42;100.00;100681.78;5091975;28;20573;-75
2022/10/15 03:45:17;;;;;;;0.80;0.80;;;;;;;11.33;100.00;100678.13;5091677;28;20226;-74
2022/10/15 03:47:44;;;;;;;0.90;0.90;;;;;;;11.23;100.00;100671.88;5091703;28;20509;-74
2022/10/15 03:50:10;;;;;;;1.27;1.27;;;;;;;11.21;100.00;100665.75;5091649;28;20198;-74
2022/10/15 03:52:38;;;;;;;0.70;0.70;;;;;;;10.92;100.00;100597.66;5091653;28;20198;-74
2022/10/15 03:55:06;;;;;;;0.70;0.70;;;;;;;11.52;100.00;100685.47;5091877;28;20209;-74
2022/10/15 03:57:34;;;;;;;0.70;0.70;;;;;;;11.43;100.00;100683.53;5091403;28;20199;-74
2022/10/15 04:00:01;;;;;;;0.70;0.70;;;;;;;11.28;100.00;100680.63;5091545;28;20284;-74
2022/10/15 04:02:28;;;;;;;1.33;1.23;;;;;;;11.18;100.00;100659.63;5091543;28;20416;-74
2022/10/15 04:04:55;;;;;;;1.23;1.23;;;;;;;11.35;100.00;100679.03;5091433;28;20226;-74
2022/10/15 04:07:22;;;;;;;0.70;0.70;;;;;;;11.22;100.00;100675.31;5091458;28;20198;-75
2022/10/15 04:09:48;;;;;;;1.03;1.03;;;;;;;10.78;100.00;100587.81;5091335;28;20698;-74
2022/10/15 04:12:16;;;;;;;1.13;1.13;;;;;;;11.11;100.00;100661.22;5091203;28;20588;-74
2022/10/15 04:14:44;;;;;;;0.70;0.70;;;;;;;11.34;100.00;100682.50;5091236;28;20202;-74
2022/10/15 04:17:11;;;;;;;0.80;0.80;;;;;;;11.24;100.00;100688.28;5090877;28;20233;-74
2022/10/15 04:19:37;;;;;;;0.83;0.83;;;;;;;11.07;100.00;100663.69;5091131;28;20217;-74
2022/10/15 04:22:04;;;;;;;0.70;0.70;;;;;;;11.19;100.00;100687.34;5090953;28;20190;-74
2022/10/15 04:24:31;;;;;;;0.87;0.87;;;;;;;11.04;100.00;100659.31;5089909;28;20618;-74
2022/10/15 04:26:58;;;;;;;0.77;0.77;;;;;;;11.18;100.00;100686.47;5090950;28;20728;-74
2022/10/15 04:29:25;;;;;;;0.50;0.50;;;;;;;11.14;100.00;100676.84;5091147;28;20205;-74
2022/10/15 04:31:53;;;;;;;0.70;0.70;;;;;;;11.30;100.00;100693.66;5091041;28;20206;-74
2022/10/15 04:34:20;;;;;;;0.98;0.98;;;;;;;11.04;100.00;100669.69;5090992;28;20204;-74
2022/10/15 04:36:46;;;;;;;0.70;0.70;;;;;;;11.17;100.00;100692.47;5090784;28;20579;-74
2022/10/15 04:39:13;;;;;;;0.80;0.80;;;;;;;10.97;100.00;100662.63;5090686;28;20666;-74
2022/10/15 04:41:40;;;;;;;0.80;0.80;;;;;;;11.07;100.00;100679.25;5090712;28;20693;-74
2022/10/15 04:44:07;;;;;;;0.70;0.70;;;;;;;11.16;100.00;100701.13;5091097;28;20198;-74
2022/10/15 04:46:33;;;;;;;0.70;0.70;;;;;;;11.23;100.00;100702.13;5090529;28;20193;-74
2022/10/15 04:49:02;;;;;;;0.67;0.67;;;;;;;11.37;100.00;100695.53;5090715;28;20198;-74
2022/10/15 04:51:29;;;;;;;0.70;0.70;;;;;;;11.22;100.00;100696.06;5090551;28;20289;-74
2022/10/15 04:53:55;;;;;;;0.80;0.80;;;;;;;11.34;100.00;100705.84;5090502;28;20202;-74
2022/10/15 04:56:23;;;;;;;0.60;0.60;;;;;;;11.40;100.00;100712.06;5090855;28;20198;-74
2022/10/15 04:58:50;;;;;;;0.70;0.70;;;;;;;11.49;100.00;100710.47;5090556;28;20208;-74
2022/10/15 05:01:19;;;;;;;0.70;0.70;;;;;;;11.48;100.00;100713.94;5090638;28;20265;-73
2022/10/15 05:03:48;;;;;;;0.80;0.80;;;;;;;11.46;100.00;100706.09;5090372;28;20209;-74
2022/10/15 05:06:18;;;;;;;0.80;0.80;;;;;;;11.16;100.00;100653.53;5090325;28;20237;-73
2022/10/15 05:08:45;;;;;;;0.70;0.70;;;;;;;11.41;100.00;100718.97;5090511;28;20201;-74
2022/10/15 05:11:14;;;;;;;0.73;0.73;;;;;;;11.49;100.00;100726.06;5090661;28;20198;-73
2022/10/15 05:13:41;;;;;;;0.70;0.70;;;;;;;11.35;100.00;100726.63;5090251;28;20580;-74
2022/10/15 05:16:11;;;;;;;0.70;0.70;;;;;;;11.44;100.00;100715.59;5090526;28;21015;-74
2022/10/15 05:18:38;;;;;;;0.70;0.70;;;;;;;11.55;100.00;100729.69;5090555;28;20230;-74
2022/10/15 05:21:05;;;;;;;0.80;0.80;;;;;;;11.49;100.00;100713.06;5090466;28;20225;-74
2022/10/15 05:23:34;;;;;;;1.35;1.25;;;;;;;11.68;100.00;100729.09;5090309;28;20190;-74
2022/10/15 05:26:02;;;;;;;0.70;0.70;;;;;;;11.70;100.00;100736.94;5090368;28;20236;-73
2022/10/15 05:28:29;;;;;;;1.48;1.48;;;;;;;11.58;100.00;100719.34;5090175;28;20201;-74
2022/10/15 05:30:56;;;;;;;0.80;0.80;;;;;;;11.37;100.00;100739.66;5090145;28;20209;-73
2022/10/15 05:33:23;;;;;;;0.80;0.80;;;;;;;11.51;100.00;100747.75;5090249;28;20231;-74
2022/10/15 05:35:50;;;;;;;0.70;0.70;;;;;;;11.59;100.00;100748.81;5089965;28;20579;-73
2022/10/15 05:38:16;;;;;;;0.80;0.80;;;;;;;11.73;100.00;100745.69;5090090;28;20588;-74
2022/10/15 05:40:49;;;;;;;0.80;0.80;;;;;;;11.88;100.00;100747.69;5090001;28;20600;-73
2022/10/15 05:43:16;;;;;;;0.77;0.77;;;;;;;11.68;100.00;100749.00;5090143;28;20197;-72
2022/10/15 05:45:42;;;;;;;0.70;0.70;;;;;;;11.66;100.00;100750.69;5089823;28;20241;-72
2022/10/15 05:48:09;;;;;;;0.63;0.63;;;;;;;11.65;100.00;100759.31;5071256;28;20202;-73
2022/10/15 05:50:36;;;;;;;0.70;0.70;;;;;;;11.47;100.00;100728.63;5090258;28;20198;-73
2022/10/15 05:53:03;;;;;;;0.77;0.77;;;;;;;11.14;100.00;100665.59;5090115;28;20198;-73
2022/10/15 05:55:30;;;;;;;0.70;0.70;;;;;;;11.93;100.00;100761.69;5090020;28;20198;-73
2022/10/15 05:58:03;;;;;;;0.70;0.70;;;;;;;11.85;100.00;100738.13;5090028;28;20227;-73
2022/10/15 06:00:29;;;;;;;0.70;0.70;;;;;;;11.96;100.00;100761.72;5093556;28;20625;-73
2022/10/15 06:02:56;;;;;;;0.68;0.68;;;;;;;12.13;100.00;100754.28;5093767;28;20198;-73
2022/10/15 06:05:23;;;;;;;0.60;0.60;;;;;;;12.27;100.00;100769.28;5058104;28;20229;-73
2022/10/15 06:07:50;;;;;;;0.70;0.70;;;;;;;12.11;100.00;100743.84;5093617;28;20205;-73
2022/10/15 06:10:17;;;;;;;0.88;0.88;;;;;;;12.39;100.00;100769.53;5093426;28;20209;-73
2022/10/15 06:12:49;;;;;;;0.70;0.70;;;;;;;12.48;100.00;100767.94;5093381;28;20193;-73
2022/10/15 06:15:18;;;;;;;0.70;0.70;;;;;;;12.58;100.00;100770.75;5074783;28;20655;-73
2022/10/15 06:17:45;;;;;;;0.88;0.88;;;;;;;12.46;100.00;100770.50;5093458;28;20237;-73
2022/10/15 06:20:12;;;;;;;0.68;0.68;;;;;;;12.67;100.00;100775.22;5093535;28;20620;-73
2022/10/15 06:22:39;;;;;;;1.08;1.08;;;;;;;12.72;100.00;100784.00;5093372;28;20576;-73
2022/10/15 06:25:07;;;;;;;0.70;0.70;;;;;;;12.94;100.00;100783.50;5093640;28;20268;-73
2022/10/15 06:27:34;;;;;;;0.70;0.70;;;;;;;12.60;100.00;100750.81;5093314;28;20202;-73
2022/10/15 06:30:00;;;;;;;0.70;0.70;;;;;;;12.88;100.00;100791.19;5093124;28;20267;-73
2022/10/15 06:32:29;;;;;;;0.70;0.70;;;;;;;13.10;100.00;100793.34;5093460;28;20202;-73
2022/10/15 06:34:56;;;;;;;0.63;0.63;;;;;;;13.20;100.00;100800.44;5093070;28;20297;-73
2022/10/15 06:37:23;;;;;;;0.70;0.70;;;;;;;13.30;100.00;100804.97;5093118;28;20209;-73
2022/10/15 06:39:49;;;;;;;0.60;0.60;;;;;;;13.39;100.00;100806.81;5092918;28;20205;-73
2022/10/15 06:42:16;;;;;;;0.70;0.70;;;;;;;13.63;100.00;100814.09;5092908;28;20205;-73
2022/10/15 06:44:43;;;;;;;0.85;0.85;;;;;;;13.29;100.00;100810.16;5093072;28;20198;-73
2022/10/15 06:47:10;;;;;;;0.70;0.70;;;;;;;13.35;100.00;100786.78;5093023;28;20194;-73
2022/10/15 06:49:38;;;;;;;0.60;0.60;;;;;;;13.64;100.00;100808.06;5092844;28;20198;-73
2022/10/15 06:52:05;;;;;;;0.70;0.70;;;;;;;13.62;100.00;100821.09;5092740;28;20194;-73
2022/10/15 06:54:31;;;;;;;0.60;0.60;;;;;;;13.71;100.00;100821.19;5092683;28;20202;-73
2022/10/15 06:56:58;;;;;;;0.70;0.70;;;;;;;13.82;100.00;100803.09;5093081;28;20210;-74
2022/10/15 06:59:25;;;;;;;0.80;0.80;;;;;;;13.85;99.34;100816.16;5092777;28;20225;-73
2022/10/15 07:01:52;;;;;;;0.70;0.70;;;;;;;13.85;100.00;100819.66;5092774;28;20220;-73
2022/10/15 07:04:18;;;;;;;0.70;0.70;;;;;;;14.01;99.26;100818.13;5092527;28;20639;-73
2022/10/15 07:06:46;;;;;;;0.73;0.73;;;;;;;14.26;98.16;100822.81;5092606;28;20717;-73
2022/10/15 07:09:13;;;;;;;0.70;0.70;;;;;;;13.88;94.90;100795.34;5092333;28;20198;-73
2022/10/15 07:11:40;;;;;;;0.80;0.80;;;;;;;13.52;96.35;100815.72;5091175;28;20209;-73
2022/10/15 07:14:07;;;;;;;5.60;1.50;;;;;;;13.07;97.19;100709.94;5092388;28;20198;-73
2022/10/15 07:16:34;;;;;;;0.77;0.77;;;;;;;13.72;98.24;100816.88;5092385;28;20537;-73
2022/10/15 07:19:00;;;;;;;0.68;0.68;;;;;;;13.54;98.96;100801.84;5092251;28;20624;-73
2022/10/15 07:21:27;;;;;;;0.80;0.80;;;;;;;13.79;98.33;100796.13;5092289;28;20690;-74
2022/10/15 07:23:55;;;;;;;0.80;0.80;;;;;;;14.17;96.81;100817.47;5092502;28;20583;-73
2022/10/15 07:26:22;;;;;;;0.80;0.80;;;;;;;14.20;95.74;100821.81;5092129;28;20230;-73
2022/10/15 07:28:49;;;;;;;0.73;0.73;;;;;;;14.41;95.04;100831.69;5056612;28;20205;-74
2022/10/15 07:31:15;;;;;;;0.80;0.80;;;;;;;14.12;93.02;100819.16;5091956;28;20238;-73
2022/10/15 07:33:42;;;;;;;0.70;0.70;;;;;;;14.13;93.01;100804.34;5073453;28;20635;-73
2022/10/15 07:36:11;;;;;;;0.60;0.60;;;;;;;14.39;93.81;100814.28;5091776;28;20206;-73
2022/10/15 07:38:40;;;;;;;0.70;0.70;;;;;;;14.48;93.08;100789.16;5092039;28;20229;-73
2022/10/15 07:41:09;;;;;;;0.70;0.70;;;;;;;14.73;91.81;100819.88;5092053;28;20278;-73
2022/10/15 07:43:37;;;;;;;0.80;0.80;;;;;;;14.76;90.84;100814.69;5091657;28;20205;-73
2022/10/15 07:46:05;;;;;;;0.70;0.70;;;;;;;14.78;90.59;100810.31;5056181;28;20229;-73
2022/10/15 07:48:32;;;;;;;0.80;0.80;;;;;;;14.83;91.79;100803.44;5091536;28;20194;-73
2022/10/15 07:51:01;;;;;;;0.65;0.65;;;;;;;15.23;89.28;100804.66;5091854;28;20239;-73
2022/10/15 07:53:28;;;;;;;0.70;0.70;;;;;;;14.83;91.06;100785.16;5055815;28;20197;-73
2022/10/15 07:55:59;;;;;;;0.60;0.60;;;;;;;14.79;91.25;100784.25;5072545;28;20205;-73
2022/10/15 07:58:29;;;;;;;0.60;0.60;;;;;;;15.22;89.70;100814.22;5091464;28;20202;-73
2022/10/15 08:00:55;;;;;;;0.70;0.70;;;;;;;14.83;88.25;100743.38;5091612;28;20281;-73
2022/10/15 08:03:22;;;;;;;0.70;0.70;;;;;;;15.21;88.99;100820.28;5072404;28;20205;-73
2022/10/15 08:05:52;;;;;;;0.65;0.65;;;;;;;14.94;87.83;100801.78;5091270;28;20221;-73
2022/10/15 08:08:18;;;;;;;0.73;0.73;;;;;;;15.16;87.61;100818.53;5091251;28;20198;-73
2022/10/15 08:10:45;;;;;;;1.05;1.05;;;;;;;15.14;86.10;100810.66;5091325;28;20195;-73
2022/10/15 08:13:12;;;;;;;0.90;0.90;;;;;;;15.39;84.66;100794.31;5091674;28;20657;-73
2022/10/15 08:15:41;;;;;;;0.70;0.70;;;;;;;15.68;84.52;100832.84;5090988;28;20206;-73
2022/10/15 08:18:09;;;;;;;1.05;1.05;;;;;;;15.89;81.52;100838.22;5072176;28;20302;-74
2022/10/15 08:20:36;;;;;;;0.70;0.70;;;;;;;15.84;82.37;100825.09;5091235;28;20354;-73
2022/10/15 08:23:03;;;;;;;0.85;0.85;;;;;;;15.79;80.98;100810.28;5090708;28;20229;-74
2022/10/15 08:25:31;;;;;;;0.75;0.75;;;;;;;15.74;81.97;100827.66;5091196;28;20202;-74
2022/10/15 08:27:58;;;;;;;0.73;0.73;;;;;;;16.03;81.05;100844.41;5091029;28;20244;-75
2022/10/15 08:30:25;;;;;;;0.70;0.70;;;;;;;16.20;80.20;100841.84;5091026;28;20201;-74
2022/10/15 08:32:53;;;;;;;0.70;0.70;;;;;;;16.18;80.11;100840.97;5091026;28;20259;-74
2022/10/15 08:35:21;;;;;;;0.82;0.82;;;;;;;16.32;79.76;100840.16;5090568;28;20684;-73
2022/10/15 08:37:48;;;;;;;0.80;0.80;;;;;;;15.61;80.38;100747.41;5090759;28;20666;-73
2022/10/15 08:40:15;;;;;;;0.70;0.70;;;;;;;16.63;79.44;100846.41;5090838;28;20198;-73
2022/10/15 08:42:46;;;;;;;0.90;0.90;;;;;;;16.82;77.76;100842.97;5090475;28;20578;-73
2022/10/15 08:45:16;;;;;;;0.60;0.60;;;;;;;16.92;77.16;100828.13;5090641;28;20599;-73
2022/10/15 08:47:46;;;;;;;0.80;0.80;;;;;;;17.01;76.27;100838.63;5054886;28;20202;-73
2022/10/15 08:50:27;;;;;;;0.68;0.68;;;;;;;17.01;76.96;100832.50;5090793;28;20309;-73
2022/10/15 08:52:55;;;;;;;0.70;0.70;;;;;;;16.99;76.28;100836.84;5090629;28;20197;-73
2022/10/15 08:55:23;;;;;;;0.60;0.60;;;;;;;17.03;77.13;100830.75;5090658;28;20201;-73
2022/10/15 08:57:58;;;;;;;0.70;0.70;;;;;;;17.17;75.89;100832.50;5090734;28;20198;-73
2022/10/15 09:00:31;;;;;;;1.35;1.35;;;;;;;17.08;75.52;100814.19;5090584;28;20197;-73
2022/10/15 09:03:03;;;;;;;0.70;0.70;;;;;;;17.24;75.48;100836.88;5071546;28;20186;-74
2022/10/15 09:05:38;;;;;;;1.08;1.08;;;;;;;17.39;75.62;100841.25;5090384;28;20194;-73
2022/10/15 09:08:18;;;;;;;0.70;0.70;;;;;;;17.40;75.64;100834.25;5090495;28;20205;-73
2022/10/15 09:10:50;;;;;;;0.60;0.60;;;;;;;17.29;76.85;100822.03;5090526;28;20226;-73
2022/10/15 09:13:24;;;;;;;0.70;0.70;;;;;;;17.40;74.71;100821.16;5090487;28;20198;-73
2022/10/15 09:15:56;;;;;;;0.60;0.60;;;;;;;17.31;76.54;100828.13;5039386;28;20200;-74
2022/10/15 09:18:24;;;;;;;0.63;0.63;;;;;;;17.46;76.45;100831.63;5090227;28;20269;-73
2022/10/15 09:20:54;;;;;;;0.65;0.65;;;;;;;17.14;77.67;100824.66;5090550;28;20271;-73
2022/10/15 09:23:23;;;;;;;0.70;0.70;;;;;;;17.42;76.86;100828.13;5090380;28;20697;-74
2022/10/15 09:25:58;;;;;;;0.60;0.60;;;;;;;17.35;77.89;100782.69;5090211;28;20194;-74
2022/10/15 09:28:30;;;;;;;0.77;0.77;;;;;;;17.42;77.82;100827.25;5090209;28;20613;-73
2022/10/15 09:30:58;;;;;;;0.70;0.70;;;;;;;17.53;77.96;100829.00;5054591;28;20197;-74
2022/10/15 09:33:37;;;;;;;0.60;0.60;;;;;;;17.89;74.81;100827.19;5090900;28;20202;-73
2022/10/15 09:36:16;;;;;;;0.70;0.70;;;;;;;17.99;73.43;100819.28;5094189;28;20198;-73
2022/10/15 09:38:53;;;;;;;0.75;0.75;;;;;;;17.75;74.35;100829.88;5094579;28;20205;-73
2022/10/15 09:41:28;;;;;;;0.70;0.70;;;;;;;17.68;76.61;100829.00;5094160;28;20604;-74
2022/10/15 09:44:00;;;;;;;1.05;0.90;;;;;;;17.66;76.85;100816.75;5094284;28;20209;-74
2022/10/15 09:46:26;;;;;;;0.70;0.70;;;;;;;17.29;77.52;100832.53;5094016;28;20230;-73
2022/10/15 09:49:03;;;;;;;0.80;0.80;;;;;;;17.77;76.43;100825.47;5094037;28;20194;-74
2022/10/15 09:51:35;;;;;;;0.70;0.70;;;;;;;17.68;75.82;100818.50;5093902;28;20193;-74
2022/10/15 09:54:10;;;;;;;0.70;0.70;;;;;;;17.61;78.52;100821.16;5093919;28;20197;-74
2022/10/15 09:56:39;;;;;;;0.68;0.68;;;;;;;17.55;77.58;100805.41;5094092;28;20209;-73
2022/10/15 09:59:06;;;;;;;0.70;0.70;;;;;;;17.51;78.32;100811.53;5093842;28;20202;-74
2022/10/15 10:01:33;;;;;;;0.60;0.60;;;;;;;17.55;76.50;100798.38;5093818;28;20255;-75
2022/10/15 10:04:12;;;;;;;0.85;0.85;;;;;;;17.96;75.17;100803.56;5093792;28;20198;-74
2022/10/15 10:06:46;;;;;;;0.60;0.60;;;;;;;17.66;77.07;100814.13;5093416;28;20226;-75
2022/10/15 10:09:19;;;;;;;0.60;0.60;;;;;;;17.76;76.52;100814.09;5093518;28;20206;-74
2022/10/15 10:11:48;;;;;;;0.68;0.68;;;;;;;17.66;76.74;100814.13;5093846;28;20200;-74
2022/10/15 10:14:23;;;;;;;0.60;0.60;;;;;;;17.61;77.23;100773.94;5093722;28;20194;-73
2022/10/15 10:17:16;;;;;;;0.70;0.70;;;;;;;18.24;74.40;100802.56;5093308;28;20205;-74
2022/10/15 10:19:44;;;;;;;0.60;0.60;;;;;;;18.55;73.57;100802.47;5050658;28;20223;-74
2022/10/15 10:22:17;;;;;;;0.70;0.70;;;;;;;18.87;71.05;100797.84;5050858;28;20199;-74
2022/10/15 10:24:45;;;;;;;0.60;0.60;;;;;;;18.72;70.70;100798.84;5050330;28;20722;-73
2022/10/15 10:27:24;;;;;;;0.60;0.60;;;;;;;18.89;71.25;100801.34;5050692;28;20262;-74
2022/10/15 10:29:57;;;;;;;0.50;0.50;;;;;;;19.00;70.06;100799.50;5050542;28;20199;-74
2022/10/15 10:32:28;;;;;;;0.60;0.60;;;;;;;19.07;69.60;100792.44;5050754;28;20302;-74
2022/10/15 10:34:56;;;;;;;0.70;0.70;;;;;;;19.21;69.56;100793.19;5050364;28;20199;-74
2022/10/15 10:37:24;;;;;;;0.70;0.70;;;;;;;19.33;67.89;100788.69;5033801;28;20199;-74
2022/10/15 10:39:57;;;;;;;0.80;0.80;;;;;;;19.12;68.59;100788.88;5050499;28;20731;-74
2022/10/15 10:42:30;;;;;;;0.50;0.50;;;;;;;19.18;70.11;100780.06;5000882;28;20215;-74
2022/10/15 10:45:15;;;;;;;0.98;0.98;;;;;;;18.84;70.24;100787.34;5049900;28;20212;-74
2022/10/15 10:47:42;;;;;;;0.70;0.70;;;;;;;18.64;71.26;100776.13;5050081;28;20323;-73
2022/10/15 10:50:27;;;;;;;0.70;0.70;;;;;;;18.56;71.55;100746.41;5050274;28;20255;-74
2022/10/15 10:52:58;;;;;;;0.63;0.63;;;;;;;18.49;72.90;100781.44;5050279;28;20199;-73
2022/10/15 10:55:34;;;;;;;0.70;0.70;;;;;;;18.73;72.47;100776.03;5056147;28;20666;-73
2022/10/15 10:58:03;;;;;;;2.65;2.55;;;;;;;18.77;73.70;100775.13;5092692;28;20244;-73
2022/10/15 11:00:38;;;;;;;0.80;0.80;;;;;;;18.91;71.90;100772.41;5092521;28;20202;-74
2022/10/15 11:03:06;;;;;;;0.70;0.70;;;;;;;18.99;72.74;100776.72;5092444;28;20562;-74
2022/10/15 11:05:39;;;;;;;0.60;0.60;;;;;;;19.28;70.87;100771.22;5092612;28;20275;-74
2022/10/15 11:08:19;;;;;;;0.52;0.52;;;;;;;19.06;69.81;100746.00;5092477;28;20706;-74
2022/10/15 11:10:54;;;;;;;0.90;0.90;;;;;;;19.02;69.72;100760.03;5092345;28;20224;-73
2022/10/15 11:13:40;;;;;;;0.70;0.70;;;;;;;19.24;70.14;100759.84;5092421;28;20201;-74
2022/10/15 11:16:15;;;;;;;1.88;1.80;;;;;;;19.69;68.16;100765.56;5057013;28;20197;-74
2022/10/15 11:19:05;;;;;;;0.60;0.60;;;;;;;20.14;64.58;100757.09;5092105;28;20234;-74
2022/10/15 11:21:44;;;;;;;0.70;0.70;;;;;;;20.07;65.01;100762.47;5092188;28;20252;-74
2022/10/15 11:24:19;;;;;;;0.60;0.60;;;;;;;19.67;64.91;100746.28;5092287;28;20205;-74
2022/10/15 11:27:14;;;;;;;0.60;0.60;;;;;;;20.31;63.64;100758.66;5092253;28;20237;-74
2022/10/15 11:29:53;;;;;;;0.60;0.60;;;;;;;19.94;64.82;100743.31;5092064;28;20205;-74
2022/10/15 11:32:32;;;;;;;0.55;0.55;;;;;;;19.87;63.62;100746.06;5073990;28;20198;-74